sensor_id;sensor_type;location;lat;lon;timestamp;P1;durP1;ratioP1;P2;durP2;ratioP2
60203;SDS011;46068;52.132;4.618;2023-05-10T07:54:43;7.55;;;4.22;;
60203;SDS011;46068;52.132;4.618;2023-05-10T07:57:09;6.10;;;4.45;;
60203;SDS011;46068;52.132;4.618;2023-05-10T07:59:35;6.78;;;4.18;;
60203;SDS011;46068;52.132;4.618;2023-05-10T08:02:02;7.22;;;4.90;;
60203;SDS011;46068;52.132;4.618;2023-05-10T08:04:28;9.82;;;4.43;;
60203;SDS011;46068;52.132;4.618;2023-05-10T08:06:54;7.00;;;4.68;;
60203;SDS011;46068;52.132;4.618;2023-05-10T08:09:20;7.15;;;4.43;;
60203;SDS011;46068;52.132;4.618;2023-05-10T08:11:50;8.40;;;5.18;;
60203;SDS011;46068;52.132;4.618;2023-05-10T08:14:16;8.70;;;5.00;;
60203;SDS011;46068;52.132;4.618;2023-05-10T08:16:43;7.30;;;4.35;;
60203;SDS011;46068;52.132;4.618;2023-05-10T08:19:09;9.77;;;5.68;;
60203;SDS011;46068;52.132;4.618;2023-05-10T08:21:35;11.18;;;5.65;;
60203;SDS011;46068;52.132;4.618;2023-05-10T08:24:02;10.20;;;5.03;;
60203;SDS011;46068;52.132;4.618;2023-05-10T08:26:28;12.60;;;5.95;;
60203;SDS011;46068;52.132;4.618;2023-05-10T08:28:56;9.18;;;5.63;;
60203;SDS011;46068;52.132;4.618;2023-05-10T08:31:22;9.00;;;5.45;;
60203;SDS011;46068;52.132;4.618;2023-05-10T08:33:49;8.52;;;4.90;;
60203;SDS011;46068;52.132;4.618;2023-05-10T08:36:16;9.07;;;4.95;;
60203;SDS011;46068;52.132;4.618;2023-05-10T08:38:46;7.88;;;4.30;;
60203;SDS011;46068;52.132;4.618;2023-05-10T08:41:12;7.35;;;4.40;;
60203;SDS011;46068;52.132;4.618;2023-05-10T10:09:01;3.58;;;2.58;;
60203;SDS011;46068;52.132;4.618;2023-05-10T10:11:28;5.07;;;2.75;;
60203;SDS011;46068;52.132;4.618;2023-05-10T10:13:54;4.68;;;3.00;;
60203;SDS011;46068;52.132;4.618;2023-05-10T10:16:21;6.57;;;3.30;;
60203;SDS011;46068;52.132;4.618;2023-05-10T10:18:47;3.95;;;3.00;;
60203;SDS011;46068;52.132;4.618;2023-05-10T10:21:13;5.60;;;3.20;;
60203;SDS011;46068;52.132;4.618;2023-05-10T10:23:41;5.40;;;3.30;;
60203;SDS011;46068;52.132;4.618;2023-05-10T11:02:44;16.40;;;8.07;;
60203;SDS011;46068;52.132;4.618;2023-05-10T11:05:23;17.38;;;7.20;;
60203;SDS011;46068;52.132;4.618;2023-05-10T11:07:53;19.67;;;7.93;;
60203;SDS011;46068;52.132;4.618;2023-05-10T11:10:19;21.08;;;9.77;;
60203;SDS011;46068;52.132;4.618;2023-05-10T11:12:52;17.10;;;9.43;;
60203;SDS011;46068;52.132;4.618;2023-05-10T11:15:19;21.33;;;9.52;;
60203;SDS011;46068;52.132;4.618;2023-05-10T11:17:46;22.05;;;9.77;;
60203;SDS011;46068;52.132;4.618;2023-05-10T11:20:16;18.38;;;10.20;;
60203;SDS011;46068;52.132;4.618;2023-05-10T11:22:51;17.42;;;9.65;;
60203;SDS011;46068;52.132;4.618;2023-05-10T11:25:17;21.85;;;10.05;;
60203;SDS011;46068;52.132;4.618;2023-05-10T11:27:43;21.02;;;10.40;;
60203;SDS011;46068;52.132;4.618;2023-05-10T11:30:10;21.90;;;10.02;;
60203;SDS011;46068;52.132;4.618;2023-05-10T11:32:37;20.13;;;9.60;;
60203;SDS011;46068;52.132;4.618;2023-05-10T11:35:08;16.77;;;8.00;;
60203;SDS011;46068;52.132;4.618;2023-05-10T11:37:34;19.08;;;8.50;;
60203;SDS011;46068;52.132;4.618;2023-05-10T11:40:00;19.65;;;8.25;;
60203;SDS011;46068;52.132;4.618;2023-05-10T11:42:27;17.13;;;8.05;;
60203;SDS011;46068;52.132;4.618;2023-05-10T11:44:54;12.32;;;6.72;;
60203;SDS011;46068;52.132;4.618;2023-05-10T11:47:20;13.55;;;5.70;;
60203;SDS011;46068;52.132;4.618;2023-05-10T11:49:47;14.05;;;6.70;;
60203;SDS011;46068;52.132;4.618;2023-05-10T11:52:15;11.63;;;5.88;;
60203;SDS011;46068;52.132;4.618;2023-05-10T11:54:44;10.43;;;4.90;;
60203;SDS011;46068;52.132;4.618;2023-05-10T11:57:11;11.73;;;5.55;;
60203;SDS011;46068;52.132;4.618;2023-05-10T11:59:37;12.77;;;5.90;;
60203;SDS011;46068;52.132;4.618;2023-05-10T12:02:04;10.57;;;6.07;;
60203;SDS011;46068;52.132;4.618;2023-05-10T12:04:30;10.98;;;5.72;;
60203;SDS011;46068;52.132;4.618;2023-05-10T12:06:57;11.05;;;5.20;;
60203;SDS011;46068;52.132;4.618;2023-05-10T12:09:24;7.43;;;4.00;;
60203;SDS011;46068;52.132;4.618;2023-05-10T12:11:51;8.52;;;3.90;;
60203;SDS011;46068;52.132;4.618;2023-05-10T12:14:21;7.75;;;4.10;;
60203;SDS011;46068;52.132;4.618;2023-05-10T12:16:47;7.65;;;4.10;;
60203;SDS011;46068;52.132;4.618;2023-05-10T12:19:18;6.70;;;3.40;;
60203;SDS011;46068;52.132;4.618;2023-05-10T12:21:44;6.63;;;2.80;;
60203;SDS011;46068;52.132;4.618;2023-05-10T12:24:10;4.32;;;2.45;;
60203;SDS011;46068;52.132;4.618;2023-05-10T12:29:15;1.55;;;1.10;;
